• Join FlightAware (Why Join?)
  • Login
  • US Flag 
04:02PM EDT


 

Airport Tracker/Info


-or-


 

Live Flight TrackerFlight Track Log ✈ EJA947 ✈ 13-Apr-2013 ✈ KCRQ - KSLN

Flight Track Log - Related Links

Times and Time Zones

All times are in EDT time to prevent confusion due to time zone crossing. See the EJA947 flight status page for this flight to view local times or setup timezone preferences in your user account.

Time Position Orientation Groundspeed Altitude Reporting Facility
EDT Latitude Longitude Course Direction KTS MPH feet Rate Location/Type
01:25PM 33.1167 -117.3167 253° West 187 215 2,000  Level Southern California TRACON
01:26PM 33.1000 -117.3833 253° West 240 276 4,900 2,460 Climbing Southern California TRACON
01:27PM 33.0667 -117.3333 128° Southeast 280 322 7,000 2,340 Climbing Southern California TRACON
01:29PM 33.1292 -117.1592 67° East 309 356 11,600 2,220 Climbing Los Angeles Center
01:30PM 33.1686 -117.0536 66° East 335 386 13,400 1,620 Climbing Los Angeles Center
01:31PM 33.2131 -116.9403 65° Northeast 366 421 15,000 960 Climbing Los Angeles Center
01:32PM 33.2767 -116.8253 56° Northeast 407 468 15,400 960 Climbing Los Angeles Center
01:33PM 33.3394 -116.7064 58° Northeast 420 483 17,000 1,740 Climbing Los Angeles Center
01:34PM 33.4008 -116.5906 58° Northeast 413 475 19,000 1,920 Climbing Los Angeles Center
01:35PM 33.4750 -116.4500 58° Northeast 413 475 21,000 1,560 Climbing Los Angeles Center
01:36PM 33.5372 -116.3317 58° Northeast 417 480 22,300 1,320 Climbing Los Angeles Center
01:38PM 33.6025 -116.2072 58° Northeast 435 501 23,800 1,500 Climbing Los Angeles Center
01:39PM 33.6597 -116.0725 63° Northeast 451 519 25,400 1,560 Climbing Los Angeles Center
01:40PM 33.7119 -115.9331 66° East 456 525 27,100 1,560 Climbing Los Angeles Center
01:41PM 33.7667 -115.7922 65° Northeast 461 531 28,700 1,500 Climbing Los Angeles Center
01:42PM 33.8197 -115.6478 66° East 469 540 30,200 2,160 Climbing Los Angeles Center
01:43PM 33.8847 -115.4700 66° East 481 554 33,200 2,760 Climbing Los Angeles Center
01:44PM 33.9356 -115.3331 66° East 459 528 36,000 1,800 Climbing Los Angeles Center
01:45PM 33.9869 -115.1906 66° East 459 528 37,000 480 Climbing Los Angeles Center
01:46PM 34.0428 -115.0389 66° East 484 557 37,000  Level Los Angeles Center
01:47PM 34.1022 -114.8794 66° East 514 592 37,000  Level Los Angeles Center
01:48PM 34.1608 -114.7203 66° East 519 597 37,000  Level Los Angeles Center
01:49PM 34.2300 -114.5281 66° East 523 602 37,000  Level Los Angeles Center
01:50PM 34.2858 -114.3686 67° East 517 595 37,000  Level Los Angeles Center
01:50PM 34.3133 -114.2922 66° East 520 598 37,000  Level Albuquerque Center
01:51PM 34.3722 -114.1306 66° East 522 601 37,000  Level Albuquerque Center
01:52PM 34.4286 -113.9706 67° East 520 598 37,000  Level Albuquerque Center
01:54PM 34.4850 -113.8122 67° East 517 595 37,000  Level Albuquerque Center
01:55PM 34.5500 -113.6256 67° East 516 594 37,000  Level Albuquerque Center
01:56PM 34.6072 -113.4633 67° East 522 601 37,000  Level Albuquerque Center
01:57PM 34.6628 -113.3014 67° East 525 604 37,000  Level Albuquerque Center
01:58PM 34.7181 -113.1411 67° East 523 602 37,000  Level Albuquerque Center
01:59PM 34.7731 -112.9800 67° East 522 601 37,000  Level Albuquerque Center
02:00PM 34.8389 -112.7883 67° East 521 600 37,000  Level Albuquerque Center
02:01PM 34.8931 -112.6278 68° East 520 598 37,000  Level Albuquerque Center
02:02PM 34.9467 -112.4672 68° East 519 597 37,000  Level Albuquerque Center
02:03PM 35.0000 -112.3075 68° East 516 594 37,000  Level Albuquerque Center
02:04PM 35.0539 -112.1461 68° East 518 596 37,000  Level Albuquerque Center
02:05PM 35.1186 -111.9511 68° East 521 600 37,000  Level Albuquerque Center
02:06PM 35.1728 -111.7881 68° East 522 601 37,000 420 Level Albuquerque Center
02:07PM 35.2317 -111.6100 68° East 521 600 37,900 1,440 Climbing Albuquerque Center
02:08PM 35.2825 -111.4492 69° East 512 589 40,000 1,740 Climbing Albuquerque Center
02:09PM 35.3361 -111.2883 68° East 483 556 41,600 1,140 Climbing Albuquerque Center
02:10PM 35.3828 -111.1431 68° East 480 552 42,400 540 Climbing Albuquerque Center
02:11PM 35.4403 -110.9681 68° East 491 565 42,800 240 Climbing Albuquerque Center
02:12PM 35.4881 -110.8136 69° East 502 578 43,000 60 Climbing Albuquerque Center
02:13PM 35.5406 -110.6539 68° East 521 600 43,000  Level Albuquerque Center
02:14PM 35.6006 -110.4636 69° East 531 611 43,000  Level Albuquerque Center
02:15PM 35.6514 -110.3003 69° East 535 616 43,000  Level Albuquerque Center
02:16PM 35.7103 -110.1086 69° East 536 617 43,000  Level Albuquerque Center
02:17PM 35.7589 -109.9506 69° East 523 602 43,000  Level Albuquerque Center
02:18PM 35.8172 -109.7689 68° East 514 592 43,000  Level Albuquerque Center
02:19PM 35.8664 -109.6064 69° East 524 603 43,000  Level Albuquerque Center
02:20PM 35.9072 -109.4706 70° East 529 609 43,000  Level Denver Center
02:21PM 35.9561 -109.3058 70° East 532 612 43,000  Level Denver Center
02:21PM 35.9628 -109.2461 82° East 537 618 43,000  Level Albuquerque Center
02:22PM 35.9689 -109.0969 87° East 551 634 43,000  Level Denver Center
02:23PM 35.9844 -108.9239 84° East 542 624 43,000  Level Denver Center
02:24PM 36.0042 -108.7211 83° East 550 633 43,000  Level Denver Center
02:24PM 36.0072 -108.6933 82° East 543 625 43,000  Level Albuquerque Center
02:25PM 36.0269 -108.4875 83° East 543 625 43,000  Level Albuquerque Center
02:26PM 36.0636 -108.2861 77° East 541 623 43,000  Level Albuquerque Center
02:28PM 36.1097 -108.1183 71° East 540 621 43,000  Level Albuquerque Center
02:28PM 36.1522 -107.9806 69° East 537 618 43,000  Level Denver Center
02:29PM 36.2039 -107.8161 69° East 537 618 43,000  Level Denver Center
02:30PM 36.2542 -107.6503 69° East 538 619 43,000  Level Denver Center
02:31PM 36.3133 -107.4592 69° East 534 615 43,000  Level Denver Center
02:32PM 36.3631 -107.2942 69° East 533 613 43,000  Level Denver Center
02:33PM 36.4211 -107.1025 69° East 532 612 43,000  Level Denver Center
02:34PM 36.4700 -106.9386 70° East 531 611 43,000  Level Denver Center
02:35PM 36.5261 -106.7456 70° East 532 612 43,000  Level Denver Center
02:36PM 36.5753 -106.5803 70° East 531 611 43,000  Level Denver Center
02:37PM 36.6222 -106.4222 70° East 533 613 43,000  Level Denver Center
02:39PM 36.6744 -106.2494 69° East 532 612 43,000  Level Denver Center
02:40PM 36.7333 -106.0400 71° East 533 613 43,000  Level Denver Center
02:41PM 36.7803 -105.8814 70° East 531 611 43,000  Level Denver Center
02:43PM 36.8817 -105.5214 71° East 530 610 43,000  Level Denver Center
02:44PM 36.9369 -105.3286 70° East 528 608 43,000  Level Denver Center
02:45PM 36.9808 -105.1714 71° East 533 613 43,000  Level Denver Center
02:46PM 37.0286 -104.9903 72° East 539 620 43,000  Level Denver Center
02:47PM 37.0833 -104.7917 71° East 541 623 43,000  Level Denver Center
02:48PM 37.1303 -104.6217 71° East 541 623 43,000  Level Denver Center
02:49PM 37.1828 -104.4289 71° East 528 608 43,000  Level Denver Center
02:50PM 37.2269 -104.2644 71° East 522 601 43,000  Level Denver Center
02:51PM 37.2792 -104.0708 71° East 528 608 43,000  Level Denver Center
02:52PM 37.3233 -103.9056 71° East 530 610 43,000  Level Denver Center
02:53PM 37.3756 -103.7150 71° East 524 603 43,000  Level Denver Center
02:54PM 37.4197 -103.5467 72° East 532 612 43,000  Level Denver Center
02:55PM 37.4717 -103.3486 72° East 536 617 43,000  Level Denver Center
02:56PM 37.5158 -103.1764 72° East 539 620 43,000  Level Denver Center
02:57PM 37.5606 -103.0061 72° East 536 617 43,000  Level Denver Center
02:58PM 37.6108 -102.8047 72° East 540 621 43,000  Level Denver Center
02:59PM 37.6556 -102.6300 72° East 545 627 43,000  Level Denver Center
03:00PM 37.7039 -102.4386 72° East 547 629 43,000  Level Denver Center
03:01PM 37.7481 -102.2597 73° East 555 639 43,100  Climbing Denver Center
03:02PM 37.8000 -102.0511 72° East 557 641 43,000 -60 Descending Denver Center
03:03PM 37.8439 -101.8717 73° East 558 642 43,000  Level Denver Center
03:04PM 37.8947 -101.6625 73° East 556 640 43,000  Level Denver Center
03:05PM 37.9386 -101.4836 73° East 555 639 43,000  Level Denver Center
03:06PM 37.9814 -101.3036 73° East 555 639 43,000  Level Denver Center
03:07PM 38.0317 -101.0933 73° East 554 638 43,000  Level Denver Center
03:08PM 38.0750 -100.9131 73° East 554 638 43,000  Level Denver Center
03:09PM 38.1172 -100.7314 73° East 555 639 43,000  Level Denver Center
03:10PM 38.1658 -100.5217 74° East 552 635 43,000  Level Denver Center
03:11PM 38.2078 -100.3411 73° East 554 638 43,000 -1,080 Level Denver Center
03:12PM 38.2556 -100.1308 74° East 554 638 40,900 -1,980 Descending Denver Center
03:13PM 38.2606 -100.0978 79° East 553 636 40,500 -2,460 Descending Kansas City Center
03:14PM 38.2994 -99.9261 74° East 534 615 37,800 -2,820 Descending Kansas City Center
03:15PM 38.3469 -99.7236 73° East 532 612 34,700 -2,880 Descending Kansas City Center
03:16PM 38.3856 -99.5497 74° East 532 612 31,900 -2,940 Descending Kansas City Center
03:17PM 38.4292 -99.3514 74° East 542 624 28,800 -2,940 Descending Kansas City Center
03:18PM 38.4683 -99.1694 75° East 533 613 26,000 -2,760 Descending Kansas City Center
03:19PM 38.5078 -98.9958 74° East 517 595 23,300 -2,640 Descending Kansas City Center
03:20PM 38.5447 -98.8233 75° East 506 582 20,600 -2,580 Descending Kansas City Center
03:21PM 38.5814 -98.6586 74° East 483 556 18,000 -2,400 Descending Kansas City Center
03:22PM 38.6139 -98.4994 75° East 465 535 15,600 -2,220 Descending Kansas City Center
03:23PM 38.6442 -98.3592 75° East 407 468 13,500 -2,220 Descending Kansas City Center
03:24PM 38.6831 -98.2167 71° East 354 407 11,200 -1,980 Descending Kansas City Center
03:25PM 38.7222 -98.1108 65° Northeast 327 376 9,400 -1,740 Descending Kansas City Center
03:26PM 38.7592 -98.0108 65° Northeast 311 358 7,700 -1,680 Descending Kansas City Center
03:27PM 38.7933 -97.9142 66° East 298 343 6,000 -1,680 Descending Kansas City Center
03:28PM 38.8319 -97.8139 64° Northeast 283 326 4,300 -1,560 Descending Kansas City Center
03:29PM 38.8650 -97.7236 65° Northeast 270 311 2,900 -840 Descending Kansas City Center
03:30PM 38.8669 -97.6572 88° East 207 238 2,600 -480 Descending Kansas City Center
03:31PM 38.8300 -97.6447 165° South 146 168 2,000 -600 Descending Kansas City Center